sensor_id;sensor_type;location;lat;lon;timestamp;P1;durP1;ratioP1;P2;durP2;ratioP2
14688;SDS011;7432;48.728;9.154;2023-05-07T00:00:59;6.33;;;5.73;;
14688;SDS011;7432;48.728;9.154;2023-05-07T00:03:25;6.60;;;6.00;;
14688;SDS011;7432;48.728;9.154;2023-05-07T00:05:52;7.20;;;6.50;;
14688;SDS011;7432;48.728;9.154;2023-05-07T00:08:18;6.70;;;6.10;;
14688;SDS011;7432;48.728;9.154;2023-05-07T00:10:46;6.77;;;6.20;;
14688;SDS011;7432;48.728;9.154;2023-05-07T00:13:13;7.00;;;6.17;;
14688;SDS011;7432;48.728;9.154;2023-05-07T00:15:39;6.67;;;6.00;;
14688;SDS011;7432;48.728;9.154;2023-05-07T00:18:06;6.17;;;5.67;;
14688;SDS011;7432;48.728;9.154;2023-05-07T00:20:32;6.37;;;5.77;;
14688;SDS011;7432;48.728;9.154;2023-05-07T00:22:58;8.50;;;6.13;;
14688;SDS011;7432;48.728;9.154;2023-05-07T00:25:25;6.20;;;5.70;;
14688;SDS011;7432;48.728;9.154;2023-05-07T00:27:52;6.23;;;5.73;;
14688;SDS011;7432;48.728;9.154;2023-05-07T00:30:19;6.43;;;5.87;;
14688;SDS011;7432;48.728;9.154;2023-05-07T00:32:45;6.20;;;5.60;;
14688;SDS011;7432;48.728;9.154;2023-05-07T00:35:13;6.33;;;5.80;;
14688;SDS011;7432;48.728;9.154;2023-05-07T00:37:40;5.50;;;5.10;;
14688;SDS011;7432;48.728;9.154;2023-05-07T00:40:07;8.20;;;5.57;;
14688;SDS011;7432;48.728;9.154;2023-05-07T00:42:34;5.70;;;5.20;;
14688;SDS011;7432;48.728;9.154;2023-05-07T00:45:02;5.80;;;5.40;;
14688;SDS011;7432;48.728;9.154;2023-05-07T00:47:29;6.20;;;5.70;;
14688;SDS011;7432;48.728;9.154;2023-05-07T00:49:56;6.00;;;5.40;;
14688;SDS011;7432;48.728;9.154;2023-05-07T00:52:23;6.00;;;5.60;;
14688;SDS011;7432;48.728;9.154;2023-05-07T00:54:52;6.37;;;5.87;;
14688;SDS011;7432;48.728;9.154;2023-05-07T00:57:19;6.13;;;5.53;;
14688;SDS011;7432;48.728;9.154;2023-05-07T00:59:48;5.90;;;5.40;;
14688;SDS011;7432;48.728;9.154;2023-05-07T01:02:16;6.10;;;5.60;;
14688;SDS011;7432;48.728;9.154;2023-05-07T01:04:42;5.43;;;5.03;;
14688;SDS011;7432;48.728;9.154;2023-05-07T01:07:09;5.93;;;5.17;;
14688;SDS011;7432;48.728;9.154;2023-05-07T01:09:35;6.03;;;5.50;;
14688;SDS011;7432;48.728;9.154;2023-05-07T01:12:03;5.97;;;5.47;;
14688;SDS011;7432;48.728;9.154;2023-05-07T01:14:30;6.07;;;5.40;;
14688;SDS011;7432;48.728;9.154;2023-05-07T01:16:58;6.23;;;5.60;;
14688;SDS011;7432;48.728;9.154;2023-05-07T01:19:25;5.70;;;5.23;;
14688;SDS011;7432;48.728;9.154;2023-05-07T01:21:52;5.67;;;5.20;;
14688;SDS011;7432;48.728;9.154;2023-05-07T01:24:28;6.47;;;5.80;;
14688;SDS011;7432;48.728;9.154;2023-05-07T01:26:55;6.07;;;5.53;;
14688;SDS011;7432;48.728;9.154;2023-05-07T01:29:22;6.53;;;6.03;;
14688;SDS011;7432;48.728;9.154;2023-05-07T01:31:48;6.23;;;5.80;;
14688;SDS011;7432;48.728;9.154;2023-05-07T01:34:17;6.40;;;5.80;;
14688;SDS011;7432;48.728;9.154;2023-05-07T01:36:47;6.43;;;5.83;;
14688;SDS011;7432;48.728;9.154;2023-05-07T01:39:14;6.00;;;5.60;;
14688;SDS011;7432;48.728;9.154;2023-05-07T01:41:43;6.50;;;5.93;;
14688;SDS011;7432;48.728;9.154;2023-05-07T01:44:10;6.00;;;5.50;;
14688;SDS011;7432;48.728;9.154;2023-05-07T01:46:39;5.70;;;5.30;;
14688;SDS011;7432;48.728;9.154;2023-05-07T01:49:06;5.73;;;5.23;;
14688;SDS011;7432;48.728;9.154;2023-05-07T01:51:32;6.10;;;5.70;;
14688;SDS011;7432;48.728;9.154;2023-05-07T01:53:59;6.07;;;5.47;;
14688;SDS011;7432;48.728;9.154;2023-05-07T01:56:26;6.23;;;5.73;;
14688;SDS011;7432;48.728;9.154;2023-05-07T01:58:54;6.73;;;5.90;;
14688;SDS011;7432;48.728;9.154;2023-05-07T02:01:20;7.10;;;6.20;;
14688;SDS011;7432;48.728;9.154;2023-05-07T02:03:48;6.77;;;6.10;;
14688;SDS011;7432;48.728;9.154;2023-05-07T02:06:14;6.30;;;5.80;;
14688;SDS011;7432;48.728;9.154;2023-05-07T02:08:40;6.20;;;5.70;;
14688;SDS011;7432;48.728;9.154;2023-05-07T02:11:07;6.13;;;5.73;;
14688;SDS011;7432;48.728;9.154;2023-05-07T02:13:33;6.47;;;5.87;;
14688;SDS011;7432;48.728;9.154;2023-05-07T02:16:02;6.30;;;5.90;;
14688;SDS011;7432;48.728;9.154;2023-05-07T02:18:28;6.00;;;5.60;;
14688;SDS011;7432;48.728;9.154;2023-05-07T02:20:55;6.33;;;5.83;;
14688;SDS011;7432;48.728;9.154;2023-05-07T02:23:22;6.30;;;5.67;;
14688;SDS011;7432;48.728;9.154;2023-05-07T02:25:48;6.60;;;5.90;;
14688;SDS011;7432;48.728;9.154;2023-05-07T02:28:14;6.03;;;5.53;;
14688;SDS011;7432;48.728;9.154;2023-05-07T02:30:41;6.50;;;6.00;;
14688;SDS011;7432;48.728;9.154;2023-05-07T02:33:09;6.73;;;6.23;;
14688;SDS011;7432;48.728;9.154;2023-05-07T02:35:37;6.17;;;5.77;;
14688;SDS011;7432;48.728;9.154;2023-05-07T02:38:03;6.17;;;5.67;;
14688;SDS011;7432;48.728;9.154;2023-05-07T02:40:30;6.80;;;6.30;;
14688;SDS011;7432;48.728;9.154;2023-05-07T02:42:58;6.50;;;6.00;;
14688;SDS011;7432;48.728;9.154;2023-05-07T02:45:25;7.13;;;6.53;;
14688;SDS011;7432;48.728;9.154;2023-05-07T02:47:51;6.40;;;5.93;;
14688;SDS011;7432;48.728;9.154;2023-05-07T02:50:19;6.30;;;5.80;;
14688;SDS011;7432;48.728;9.154;2023-05-07T02:52:45;6.93;;;6.33;;
14688;SDS011;7432;48.728;9.154;2023-05-07T02:55:12;6.93;;;6.33;;
14688;SDS011;7432;48.728;9.154;2023-05-07T02:57:39;7.03;;;6.43;;
14688;SDS011;7432;48.728;9.154;2023-05-07T03:00:12;7.17;;;6.67;;
14688;SDS011;7432;48.728;9.154;2023-05-07T03:02:40;6.87;;;6.37;;
14688;SDS011;7432;48.728;9.154;2023-05-07T03:05:06;7.57;;;6.83;;
14688;SDS011;7432;48.728;9.154;2023-05-07T03:07:34;6.93;;;6.33;;
14688;SDS011;7432;48.728;9.154;2023-05-07T03:10:00;6.87;;;6.20;;
14688;SDS011;7432;48.728;9.154;2023-05-07T03:12:27;6.90;;;6.30;;
14688;SDS011;7432;48.728;9.154;2023-05-07T03:14:53;7.10;;;6.50;;
14688;SDS011;7432;48.728;9.154;2023-05-07T03:17:20;7.57;;;6.80;;
14688;SDS011;7432;48.728;9.154;2023-05-07T03:19:46;7.10;;;6.50;;
14688;SDS011;7432;48.728;9.154;2023-05-07T03:22:12;6.93;;;6.33;;
14688;SDS011;7432;48.728;9.154;2023-05-07T03:24:40;7.17;;;6.57;;
14688;SDS011;7432;48.728;9.154;2023-05-07T03:27:06;6.50;;;6.00;;
14688;SDS011;7432;48.728;9.154;2023-05-07T03:29:33;6.77;;;6.27;;
14688;SDS011;7432;48.728;9.154;2023-05-07T03:31:59;6.60;;;6.00;;
14688;SDS011;7432;48.728;9.154;2023-05-07T03:34:25;6.90;;;6.40;;
14688;SDS011;7432;48.728;9.154;2023-05-07T03:36:52;6.70;;;6.20;;
14688;SDS011;7432;48.728;9.154;2023-05-07T03:39:18;7.17;;;6.57;;
14688;SDS011;7432;48.728;9.154;2023-05-07T03:41:46;7.50;;;6.90;;
14688;SDS011;7432;48.728;9.154;2023-05-07T03:44:12;6.43;;;5.83;;
14688;SDS011;7432;48.728;9.154;2023-05-07T03:46:39;6.87;;;6.27;;
14688;SDS011;7432;48.728;9.154;2023-05-07T03:49:05;6.20;;;5.70;;
14688;SDS011;7432;48.728;9.154;2023-05-07T03:51:31;7.17;;;6.60;;
14688;SDS011;7432;48.728;9.154;2023-05-07T03:53:58;6.37;;;5.87;;
14688;SDS011;7432;48.728;9.154;2023-05-07T03:56:24;6.90;;;6.30;;
14688;SDS011;7432;48.728;9.154;2023-05-07T03:58:52;7.90;;;7.10;;
14688;SDS011;7432;48.728;9.154;2023-05-07T04:01:19;7.47;;;6.37;;
14688;SDS011;7432;48.728;9.154;2023-05-07T04:03:45;7.50;;;6.90;;
14688;SDS011;7432;48.728;9.154;2023-05-07T04:06:11;7.00;;;6.27;;
14688;SDS011;7432;48.728;9.154;2023-05-07T04:08:38;6.27;;;5.77;;
14688;SDS011;7432;48.728;9.154;2023-05-07T04:11:04;6.47;;;5.97;;
14688;SDS011;7432;48.728;9.154;2023-05-07T04:13:31;6.63;;;6.13;;
14688;SDS011;7432;48.728;9.154;2023-05-07T04:15:58;6.73;;;6.13;;
14688;SDS011;7432;48.728;9.154;2023-05-07T04:18:26;7.03;;;6.30;;
14688;SDS011;7432;48.728;9.154;2023-05-07T04:20:53;6.43;;;5.93;;
14688;SDS011;7432;48.728;9.154;2023-05-07T04:23:19;6.37;;;5.87;;
14688;SDS011;7432;48.728;9.154;2023-05-07T04:25:46;7.50;;;6.70;;
14688;SDS011;7432;48.728;9.154;2023-05-07T04:28:13;6.80;;;6.20;;
14688;SDS011;7432;48.728;9.154;2023-05-07T04:30:39;6.60;;;6.07;;
14688;SDS011;7432;48.728;9.154;2023-05-07T04:33:07;6.97;;;6.37;;
14688;SDS011;7432;48.728;9.154;2023-05-07T04:35:33;7.53;;;6.83;;
14688;SDS011;7432;48.728;9.154;2023-05-07T04:38:01;6.40;;;6.00;;
14688;SDS011;7432;48.728;9.154;2023-05-07T04:40:27;6.33;;;5.83;;
14688;SDS011;7432;48.728;9.154;2023-05-07T04:42:53;7.30;;;6.57;;
14688;SDS011;7432;48.728;9.154;2023-05-07T04:45:20;6.60;;;6.00;;
14688;SDS011;7432;48.728;9.154;2023-05-07T04:47:46;6.67;;;6.17;;
14688;SDS011;7432;48.728;9.154;2023-05-07T04:50:14;7.27;;;6.43;;
14688;SDS011;7432;48.728;9.154;2023-05-07T04:52:41;6.63;;;6.13;;
14688;SDS011;7432;48.728;9.154;2023-05-07T04:55:07;7.23;;;6.53;;
14688;SDS011;7432;48.728;9.154;2023-05-07T04:57:34;6.50;;;6.00;;
14688;SDS011;7432;48.728;9.154;2023-05-07T05:00:01;6.03;;;5.63;;
14688;SDS011;7432;48.728;9.154;2023-05-07T05:02:29;6.57;;;6.00;;
14688;SDS011;7432;48.728;9.154;2023-05-07T05:04:55;6.13;;;5.73;;
14688;SDS011;7432;48.728;9.154;2023-05-07T05:07:23;6.77;;;6.27;;
14688;SDS011;7432;48.728;9.154;2023-05-07T05:09:49;6.57;;;5.97;;
14688;SDS011;7432;48.728;9.154;2023-05-07T05:12:16;6.23;;;5.83;;
14688;SDS011;7432;48.728;9.154;2023-05-07T05:14:42;6.37;;;5.97;;
14688;SDS011;7432;48.728;9.154;2023-05-07T05:17:08;6.57;;;5.90;;
14688;SDS011;7432;48.728;9.154;2023-05-07T05:19:35;6.27;;;5.77;;
14688;SDS011;7432;48.728;9.154;2023-05-07T05:22:01;6.50;;;5.90;;
14688;SDS011;7432;48.728;9.154;2023-05-07T05:24:30;6.33;;;5.80;;
14688;SDS011;7432;48.728;9.154;2023-05-07T05:26:56;6.53;;;5.93;;
14688;SDS011;7432;48.728;9.154;2023-05-07T05:29:24;6.90;;;6.23;;
14688;SDS011;7432;48.728;9.154;2023-05-07T05:31:51;6.03;;;5.53;;
14688;SDS011;7432;48.728;9.154;2023-05-07T05:34:17;6.20;;;5.70;;
14688;SDS011;7432;48.728;9.154;2023-05-07T05:36:44;6.33;;;5.83;;
14688;SDS011;7432;48.728;9.154;2023-05-07T05:39:11;6.53;;;5.93;;
14688;SDS011;7432;48.728;9.154;2023-05-07T05:41:39;6.23;;;5.73;;
14688;SDS011;7432;48.728;9.154;2023-05-07T05:44:05;6.63;;;6.03;;
14688;SDS011;7432;48.728;9.154;2023-05-07T05:46:32;6.37;;;5.87;;
14688;SDS011;7432;48.728;9.154;2023-05-07T05:48:58;6.20;;;5.80;;
14688;SDS011;7432;48.728;9.154;2023-05-07T05:51:25;6.70;;;6.10;;
14688;SDS011;7432;48.728;9.154;2023-05-07T05:53:51;6.30;;;5.77;;
14688;SDS011;7432;48.728;9.154;2023-05-07T05:56:18;5.80;;;5.40;;
14688;SDS011;7432;48.728;9.154;2023-05-07T05:58:46;6.30;;;5.90;;
14688;SDS011;7432;48.728;9.154;2023-05-07T06:01:12;6.43;;;6.03;;
14688;SDS011;7432;48.728;9.154;2023-05-07T06:03:38;6.93;;;6.43;;
14688;SDS011;7432;48.728;9.154;2023-05-07T06:06:05;6.38;;;5.97;;
14688;SDS011;7432;48.728;9.154;2023-05-07T06:08:31;6.75;;;6.25;;
14688;SDS011;7432;48.728;9.154;2023-05-07T06:10:58;6.72;;;6.22;;
14688;SDS011;7432;48.728;9.154;2023-05-07T06:13:24;6.90;;;6.40;;
14688;SDS011;7432;48.728;9.154;2023-05-07T06:15:52;6.10;;;5.70;;
14688;SDS011;7432;48.728;9.154;2023-05-07T06:18:18;6.55;;;6.15;;
14688;SDS011;7432;48.728;9.154;2023-05-07T06:20:45;6.80;;;6.40;;
14688;SDS011;7432;48.728;9.154;2023-05-07T06:23:11;7.30;;;6.90;;
14688;SDS011;7432;48.728;9.154;2023-05-07T06:25:37;6.95;;;6.45;;
14688;SDS011;7432;48.728;9.154;2023-05-07T06:28:04;6.90;;;6.50;;
14688;SDS011;7432;48.728;9.154;2023-05-07T06:30:30;6.93;;;6.50;;
14688;SDS011;7432;48.728;9.154;2023-05-07T06:32:58;7.10;;;6.70;;
14688;SDS011;7432;48.728;9.154;2023-05-07T06:35:24;7.13;;;6.72;;
14688;SDS011;7432;48.728;9.154;2023-05-07T06:37:50;7.30;;;6.80;;
14688;SDS011;7432;48.728;9.154;2023-05-07T06:40:17;6.78;;;6.38;;
14688;SDS011;7432;48.728;9.154;2023-05-07T06:42:43;7.30;;;6.80;;
14688;SDS011;7432;48.728;9.154;2023-05-07T06:45:10;7.28;;;6.80;;
14688;SDS011;7432;48.728;9.154;2023-05-07T06:47:37;8.25;;;7.75;;
14688;SDS011;7432;48.728;9.154;2023-05-07T06:50:05;7.53;;;6.97;;
14688;SDS011;7432;48.728;9.154;2023-05-07T06:52:32;7.05;;;6.63;;
14688;SDS011;7432;48.728;9.154;2023-05-07T06:54:59;7.53;;;6.82;;
14688;SDS011;7432;48.728;9.154;2023-05-07T06:57:25;7.20;;;6.80;;
14688;SDS011;7432;48.728;9.154;2023-05-07T06:59:52;7.35;;;6.75;;
14688;SDS011;7432;48.728;9.154;2023-05-07T07:02:18;7.03;;;6.53;;
14688;SDS011;7432;48.728;9.154;2023-05-07T07:04:44;7.50;;;7.00;;
14688;SDS011;7432;48.728;9.154;2023-05-07T07:07:12;7.32;;;6.82;;
14688;SDS011;7432;48.728;9.154;2023-05-07T07:09:39;7.38;;;6.88;;
14688;SDS011;7432;48.728;9.154;2023-05-07T07:12:05;6.93;;;6.43;;
14688;SDS011;7432;48.728;9.154;2023-05-07T07:14:32;7.13;;;6.63;;
14688;SDS011;7432;48.728;9.154;2023-05-07T07:16:58;7.03;;;6.43;;
14688;SDS011;7432;48.728;9.154;2023-05-07T07:19:25;7.32;;;6.82;;
14688;SDS011;7432;48.728;9.154;2023-05-07T07:21:52;7.53;;;7.03;;
14688;SDS011;7432;48.728;9.154;2023-05-07T07:24:19;8.10;;;7.60;;
14688;SDS011;7432;48.728;9.154;2023-05-07T07:26:46;6.82;;;6.43;;
14688;SDS011;7432;48.728;9.154;2023-05-07T07:29:12;7.20;;;6.70;;
14688;SDS011;7432;48.728;9.154;2023-05-07T07:31:39;7.38;;;6.95;;
14688;SDS011;7432;48.728;9.154;2023-05-07T07:34:05;7.97;;;7.28;;
14688;SDS011;7432;48.728;9.154;2023-05-07T07:36:31;7.47;;;6.97;;
14688;SDS011;7432;48.728;9.154;2023-05-07T07:38:58;7.43;;;6.93;;
14688;SDS011;7432;48.728;9.154;2023-05-07T07:41:25;7.18;;;6.68;;
14688;SDS011;7432;48.728;9.154;2023-05-07T07:43:52;6.80;;;6.47;;
14688;SDS011;7432;48.728;9.154;2023-05-07T07:46:18;7.97;;;7.38;;
14688;SDS011;7432;48.728;9.154;2023-05-07T07:48:45;7.20;;;6.70;;
14688;SDS011;7432;48.728;9.154;2023-05-07T07:51:11;7.30;;;6.82;;
14688;SDS011;7432;48.728;9.154;2023-05-07T07:53:37;7.32;;;6.93;;
14688;SDS011;7432;48.728;9.154;2023-05-07T07:56:04;7.22;;;6.70;;
14688;SDS011;7432;48.728;9.154;2023-05-07T07:58:32;6.63;;;6.22;;
14688;SDS011;7432;48.728;9.154;2023-05-07T08:01:00;7.00;;;6.60;;
14688;SDS011;7432;48.728;9.154;2023-05-07T08:03:26;7.32;;;6.82;;
14688;SDS011;7432;48.728;9.154;2023-05-07T08:05:53;6.63;;;6.32;;
14688;SDS011;7432;48.728;9.154;2023-05-07T08:08:19;6.80;;;6.40;;
14688;SDS011;7432;48.728;9.154;2023-05-07T08:10:45;6.95;;;6.45;;
14688;SDS011;7432;48.728;9.154;2023-05-07T08:13:14;6.75;;;6.35;;
14688;SDS011;7432;48.728;9.154;2023-05-07T08:15:42;7.20;;;6.60;;
14688;SDS011;7432;48.728;9.154;2023-05-07T08:18:09;6.68;;;6.22;;
14688;SDS011;7432;48.728;9.154;2023-05-07T08:20:35;7.43;;;6.82;;
14688;SDS011;7432;48.728;9.154;2023-05-07T08:23:04;7.20;;;6.80;;
14688;SDS011;7432;48.728;9.154;2023-05-07T08:25:32;7.13;;;6.53;;
14688;SDS011;7432;48.728;9.154;2023-05-07T08:27:59;6.90;;;6.43;;
14688;SDS011;7432;48.728;9.154;2023-05-07T08:30:25;6.53;;;6.13;;
14688;SDS011;7432;48.728;9.154;2023-05-07T08:32:53;6.47;;;6.07;;
14688;SDS011;7432;48.728;9.154;2023-05-07T08:35:20;7.13;;;6.63;;
14688;SDS011;7432;48.728;9.154;2023-05-07T08:37:46;6.93;;;6.30;;
14688;SDS011;7432;48.728;9.154;2023-05-07T08:40:13;6.88;;;6.38;;
14688;SDS011;7432;48.728;9.154;2023-05-07T08:42:39;6.97;;;6.53;;
14688;SDS011;7432;48.728;9.154;2023-05-07T08:45:08;7.07;;;6.60;;
14688;SDS011;7432;48.728;9.154;2023-05-07T08:47:39;6.50;;;6.20;;
14688;SDS011;7432;48.728;9.154;2023-05-07T08:50:09;6.88;;;6.38;;
14688;SDS011;7432;48.728;9.154;2023-05-07T08:52:36;6.90;;;6.32;;
14688;SDS011;7432;48.728;9.154;2023-05-07T08:55:03;7.20;;;6.70;;
14688;SDS011;7432;48.728;9.154;2023-05-07T08:57:30;6.90;;;6.50;;
14688;SDS011;7432;48.728;9.154;2023-05-07T08:59:56;6.68;;;6.30;;
14688;SDS011;7432;48.728;9.154;2023-05-07T09:02:23;6.88;;;6.50;;
14688;SDS011;7432;48.728;9.154;2023-05-07T09:04:49;6.95;;;6.55;;
14688;SDS011;7432;48.728;9.154;2023-05-07T09:07:17;6.70;;;6.30;;
14688;SDS011;7432;48.728;9.154;2023-05-07T09:09:44;6.80;;;6.30;;
14688;SDS011;7432;48.728;9.154;2023-05-07T09:12:11;6.55;;;6.05;;
14688;SDS011;7432;48.728;9.154;2023-05-07T09:14:37;6.88;;;6.43;;
14688;SDS011;7432;48.728;9.154;2023-05-07T09:17:03;7.25;;;6.75;;
14688;SDS011;7432;48.728;9.154;2023-05-07T09:19:30;7.50;;;6.85;;
14688;SDS011;7432;48.728;9.154;2023-05-07T09:21:59;7.50;;;6.90;;
14688;SDS011;7432;48.728;9.154;2023-05-07T09:24:27;6.53;;;6.13;;
14688;SDS011;7432;48.728;9.154;2023-05-07T09:26:58;7.32;;;6.93;;
14688;SDS011;7432;48.728;9.154;2023-05-07T09:29:26;7.07;;;6.68;;
14688;SDS011;7432;48.728;9.154;2023-05-07T09:31:53;7.22;;;6.82;;
14688;SDS011;7432;48.728;9.154;2023-05-07T09:34:20;7.25;;;6.78;;
14688;SDS011;7432;48.728;9.154;2023-05-07T09:36:47;6.82;;;6.43;;
14688;SDS011;7432;48.728;9.154;2023-05-07T09:39:13;6.80;;;6.30;;
14688;SDS011;7432;48.728;9.154;2023-05-07T09:41:44;6.95;;;6.47;;
14688;SDS011;7432;48.728;9.154;2023-05-07T09:44:11;7.00;;;6.60;;
14688;SDS011;7432;48.728;9.154;2023-05-07T09:46:38;7.47;;;6.90;;
14688;SDS011;7432;48.728;9.154;2023-05-07T09:49:07;7.70;;;7.03;;
14688;SDS011;7432;48.728;9.154;2023-05-07T09:51:39;6.95;;;6.45;;
14688;SDS011;7432;48.728;9.154;2023-05-07T09:54:09;7.25;;;6.70;;
14688;SDS011;7432;48.728;9.154;2023-05-07T09:56:36;7.68;;;7.10;;
14688;SDS011;7432;48.728;9.154;2023-05-07T09:59:05;7.45;;;7.05;;
14688;SDS011;7432;48.728;9.154;2023-05-07T10:01:32;8.20;;;7.55;;
14688;SDS011;7432;48.728;9.154;2023-05-07T10:04:04;7.20;;;6.80;;
14688;SDS011;7432;48.728;9.154;2023-05-07T10:06:33;7.75;;;7.25;;
14688;SDS011;7432;48.728;9.154;2023-05-07T10:09:00;6.80;;;6.40;;
14688;SDS011;7432;48.728;9.154;2023-05-07T10:11:28;7.10;;;6.70;;
14688;SDS011;7432;48.728;9.154;2023-05-07T10:13:54;7.00;;;6.60;;
14688;SDS011;7432;48.728;9.154;2023-05-07T10:16:22;7.00;;;6.60;;
14688;SDS011;7432;48.728;9.154;2023-05-07T10:18:49;7.07;;;6.50;;
14688;SDS011;7432;48.728;9.154;2023-05-07T10:21:17;7.20;;;6.80;;
14688;SDS011;7432;48.728;9.154;2023-05-07T10:23:44;7.15;;;6.70;;
14688;SDS011;7432;48.728;9.154;2023-05-07T10:26:12;8.15;;;7.40;;
14688;SDS011;7432;48.728;9.154;2023-05-07T10:28:42;7.18;;;6.68;;
14688;SDS011;7432;48.728;9.154;2023-05-07T10:31:15;7.80;;;7.20;;
14688;SDS011;7432;48.728;9.154;2023-05-07T10:33:56;7.50;;;7.03;;
14688;SDS011;7432;48.728;9.154;2023-05-07T10:36:25;7.50;;;7.10;;
14688;SDS011;7432;48.728;9.154;2023-05-07T10:38:52;7.20;;;6.70;;
14688;SDS011;7432;48.728;9.154;2023-05-07T10:41:19;7.80;;;7.30;;
14688;SDS011;7432;48.728;9.154;2023-05-07T10:43:46;7.70;;;7.20;;
14688;SDS011;7432;48.728;9.154;2023-05-07T10:46:14;8.20;;;7.60;;
14688;SDS011;7432;48.728;9.154;2023-05-07T10:51:34;7.40;;;7.00;;
14688;SDS011;7432;48.728;9.154;2023-05-07T10:54:19;7.50;;;7.10;;
14688;SDS011;7432;48.728;9.154;2023-05-07T10:56:52;7.10;;;6.60;;
14688;SDS011;7432;48.728;9.154;2023-05-07T10:59:31;7.68;;;7.28;;
14688;SDS011;7432;48.728;9.154;2023-05-07T11:02:06;7.25;;;6.85;;
14688;SDS011;7432;48.728;9.154;2023-05-07T11:04:36;7.40;;;6.95;;
14688;SDS011;7432;48.728;9.154;2023-05-07T11:09:56;7.13;;;6.63;;
14688;SDS011;7432;48.728;9.154;2023-05-07T11:15:15;6.90;;;6.50;;
14688;SDS011;7432;48.728;9.154;2023-05-07T11:18:00;7.57;;;7.10;;
14688;SDS011;7432;48.728;9.154;2023-05-07T11:26:23;7.80;;;7.40;;
14688;SDS011;7432;48.728;9.154;2023-05-07T11:28:50;8.50;;;7.80;;
14688;SDS011;7432;48.728;9.154;2023-05-07T11:31:20;7.90;;;7.40;;
14688;SDS011;7432;48.728;9.154;2023-05-07T11:33:48;7.97;;;7.47;;
14688;SDS011;7432;48.728;9.154;2023-05-07T11:36:16;7.97;;;7.47;;
14688;SDS011;7432;48.728;9.154;2023-05-07T11:38:44;8.98;;;8.27;;
14688;SDS011;7432;48.728;9.154;2023-05-07T11:41:11;8.02;;;7.43;;
14688;SDS011;7432;48.728;9.154;2023-05-07T11:43:37;8.52;;;7.93;;
14688;SDS011;7432;48.728;9.154;2023-05-07T11:46:05;8.07;;;7.45;;
14688;SDS011;7432;48.728;9.154;2023-05-07T11:48:34;7.78;;;7.35;;
14688;SDS011;7432;48.728;9.154;2023-05-07T11:51:01;8.48;;;7.72;;
14688;SDS011;7432;48.728;9.154;2023-05-07T11:53:36;7.85;;;7.35;;
14688;SDS011;7432;48.728;9.154;2023-05-07T11:56:07;7.90;;;7.50;;
14688;SDS011;7432;48.728;9.154;2023-05-07T11:58:33;7.65;;;7.25;;
14688;SDS011;7432;48.728;9.154;2023-05-07T12:01:00;8.30;;;7.80;;
14688;SDS011;7432;48.728;9.154;2023-05-07T12:03:26;8.48;;;7.97;;
14688;SDS011;7432;48.728;9.154;2023-05-07T12:05:53;8.48;;;7.88;;
14688;SDS011;7432;48.728;9.154;2023-05-07T12:08:20;8.40;;;7.80;;
14688;SDS011;7432;48.728;9.154;2023-05-07T12:10:49;7.97;;;7.47;;
14688;SDS011;7432;48.728;9.154;2023-05-07T12:13:16;8.18;;;7.68;;
14688;SDS011;7432;48.728;9.154;2023-05-07T12:15:43;8.65;;;7.95;;
14688;SDS011;7432;48.728;9.154;2023-05-07T12:18:10;8.95;;;8.35;;
14688;SDS011;7432;48.728;9.154;2023-05-07T12:20:37;8.30;;;7.70;;
14688;SDS011;7432;48.728;9.154;2023-05-07T12:23:04;8.38;;;7.68;;
14688;SDS011;7432;48.728;9.154;2023-05-07T12:25:31;9.50;;;8.60;;
14688;SDS011;7432;48.728;9.154;2023-05-07T12:27:58;8.50;;;7.90;;
14688;SDS011;7432;48.728;9.154;2023-05-07T12:30:26;7.72;;;7.22;;
14688;SDS011;7432;48.728;9.154;2023-05-07T12:32:52;7.28;;;6.68;;
14688;SDS011;7432;48.728;9.154;2023-05-07T12:35:25;7.07;;;6.68;;
14688;SDS011;7432;48.728;9.154;2023-05-07T12:37:54;7.53;;;7.03;;
14688;SDS011;7432;48.728;9.154;2023-05-07T12:40:21;8.27;;;7.45;;
14688;SDS011;7432;48.728;9.154;2023-05-07T12:42:47;8.02;;;7.25;;
14688;SDS011;7432;48.728;9.154;2023-05-07T12:45:21;6.95;;;6.45;;
14688;SDS011;7432;48.728;9.154;2023-05-07T12:47:47;6.95;;;6.35;;
14688;SDS011;7432;48.728;9.154;2023-05-07T12:50:14;6.80;;;6.30;;
14688;SDS011;7432;48.728;9.154;2023-05-07T12:52:42;6.60;;;6.10;;
14688;SDS011;7432;48.728;9.154;2023-05-07T12:55:12;6.73;;;6.23;;
14688;SDS011;7432;48.728;9.154;2023-05-07T12:57:39;6.23;;;5.83;;
14688;SDS011;7432;48.728;9.154;2023-05-07T13:00:06;6.57;;;6.00;;
14688;SDS011;7432;48.728;9.154;2023-05-07T13:02:37;6.27;;;5.87;;
14688;SDS011;7432;48.728;9.154;2023-05-07T13:05:04;6.27;;;5.97;;
14688;SDS011;7432;48.728;9.154;2023-05-07T13:07:31;5.50;;;5.20;;
14688;SDS011;7432;48.728;9.154;2023-05-07T13:09:57;6.23;;;5.93;;
14688;SDS011;7432;48.728;9.154;2023-05-07T13:12:23;7.00;;;6.40;;
14688;SDS011;7432;48.728;9.154;2023-05-07T13:14:50;8.03;;;7.10;;
14688;SDS011;7432;48.728;9.154;2023-05-07T13:17:16;6.70;;;6.20;;
14688;SDS011;7432;48.728;9.154;2023-05-07T13:19:44;7.60;;;6.90;;
14688;SDS011;7432;48.728;9.154;2023-05-07T13:22:11;6.17;;;5.67;;
14688;SDS011;7432;48.728;9.154;2023-05-07T13:24:37;6.97;;;6.37;;
14688;SDS011;7432;48.728;9.154;2023-05-07T13:27:06;6.10;;;5.57;;
14688;SDS011;7432;48.728;9.154;2023-05-07T13:29:32;6.60;;;6.03;;
14688;SDS011;7432;48.728;9.154;2023-05-07T13:31:59;6.53;;;5.90;;
14688;SDS011;7432;48.728;9.154;2023-05-07T13:34:25;6.17;;;5.77;;
14688;SDS011;7432;48.728;9.154;2023-05-07T13:36:53;6.17;;;5.83;;
14688;SDS011;7432;48.728;9.154;2023-05-07T13:39:20;5.87;;;5.47;;
14688;SDS011;7432;48.728;9.154;2023-05-07T13:41:46;7.23;;;5.70;;
14688;SDS011;7432;48.728;9.154;2023-05-07T13:44:12;8.17;;;5.97;;
14688;SDS011;7432;48.728;9.154;2023-05-07T13:46:39;6.67;;;6.07;;
14688;SDS011;7432;48.728;9.154;2023-05-07T13:49:05;6.80;;;6.27;;
14688;SDS011;7432;48.728;9.154;2023-05-07T13:51:31;6.20;;;5.60;;
14688;SDS011;7432;48.728;9.154;2023-05-07T13:53:59;5.17;;;4.87;;
14688;SDS011;7432;48.728;9.154;2023-05-07T13:56:25;6.20;;;5.80;;
14688;SDS011;7432;48.728;9.154;2023-05-07T13:58:53;6.60;;;6.07;;
14688;SDS011;7432;48.728;9.154;2023-05-07T14:01:19;6.80;;;5.17;;
14688;SDS011;7432;48.728;9.154;2023-05-07T14:03:46;5.67;;;5.17;;
14688;SDS011;7432;48.728;9.154;2023-05-07T14:06:12;5.30;;;4.90;;
14688;SDS011;7432;48.728;9.154;2023-05-07T14:08:38;9.17;;;5.30;;
14688;SDS011;7432;48.728;9.154;2023-05-07T14:11:06;9.83;;;5.60;;
14688;SDS011;7432;48.728;9.154;2023-05-07T14:13:33;6.60;;;5.33;;
14688;SDS011;7432;48.728;9.154;2023-05-07T14:15:59;6.63;;;5.47;;
14688;SDS011;7432;48.728;9.154;2023-05-07T14:18:26;6.03;;;5.43;;
14688;SDS011;7432;48.728;9.154;2023-05-07T14:20:53;6.00;;;5.40;;
14688;SDS011;7432;48.728;9.154;2023-05-07T14:23:20;7.27;;;4.80;;
14688;SDS011;7432;48.728;9.154;2023-05-07T14:25:51;5.60;;;5.10;;
14688;SDS011;7432;48.728;9.154;2023-05-07T14:28:19;6.67;;;5.43;;
14688;SDS011;7432;48.728;9.154;2023-05-07T14:30:45;5.80;;;5.20;;
14688;SDS011;7432;48.728;9.154;2023-05-07T14:33:11;5.83;;;5.13;;
14688;SDS011;7432;48.728;9.154;2023-05-07T14:35:38;5.80;;;5.20;;
14688;SDS011;7432;48.728;9.154;2023-05-07T14:38:04;7.03;;;5.83;;
14688;SDS011;7432;48.728;9.154;2023-05-07T14:40:30;7.40;;;5.20;;
14688;SDS011;7432;48.728;9.154;2023-05-07T14:42:57;7.80;;;5.43;;
14688;SDS011;7432;48.728;9.154;2023-05-07T14:45:24;5.57;;;5.07;;
14688;SDS011;7432;48.728;9.154;2023-05-07T14:47:51;5.27;;;4.73;;
14688;SDS011;7432;48.728;9.154;2023-05-07T14:50:17;5.17;;;4.50;;
14688;SDS011;7432;48.728;9.154;2023-05-07T14:52:44;5.70;;;4.90;;
14688;SDS011;7432;48.728;9.154;2023-05-07T14:55:11;5.60;;;5.17;;
14688;SDS011;7432;48.728;9.154;2023-05-07T14:57:38;4.77;;;4.47;;
14688;SDS011;7432;48.728;9.154;2023-05-07T15:00:05;5.00;;;4.60;;
14688;SDS011;7432;48.728;9.154;2023-05-07T15:02:34;5.10;;;4.70;;
14688;SDS011;7432;48.728;9.154;2023-05-07T15:05:00;5.27;;;4.90;;
14688;SDS011;7432;48.728;9.154;2023-05-07T15:07:27;6.33;;;4.57;;
14688;SDS011;7432;48.728;9.154;2023-05-07T15:09:53;4.83;;;4.53;;
14688;SDS011;7432;48.728;9.154;2023-05-07T15:12:20;4.70;;;4.27;;
14688;SDS011;7432;48.728;9.154;2023-05-07T15:14:46;4.60;;;4.20;;